Time;durP1;ratioP1;P1;durP2;ratioP2;P2;SDS_P1;SDS_P2;PMS_P1;PMS_P2;Temp;Humidity;BMP_temperature;BMP_pressure;BME280_temperature;BME280_humidity;BME280_pressure;Samples;Min_cycle;Max_cycle;Signal;HPM_P1;HPM_P2
2022/06/13 00:02:11;;;;;;;6.82;1.40;;;12.30;99.90;;;;;;4940454;29;20033;-90
2022/06/13 00:04:37;;;;;;;4.68;1.90;;;12.30;99.90;;;;;;4923872;29;20040;-93
2022/06/13 00:07:03;;;;;;;4.50;1.13;;;12.20;99.90;;;;;;4923996;29;20040;-91
2022/06/13 00:09:30;;;;;;;6.50;1.48;;;12.20;99.90;;;;;;4938418;29;20044;-95
2022/06/13 00:11:56;;;;;;;7.60;1.20;;;12.20;99.90;;;;;;4921333;29;20147;-89
2022/06/13 00:14:22;;;;;;;8.55;2.25;;;12.10;99.90;;;;;;4920656;29;20024;-90
2022/06/13 00:16:48;;;;;;;5.05;1.40;;;12.10;99.90;;;;;;4922201;29;20024;-89
2022/06/13 00:19:13;;;;;;;7.88;2.05;;;12.20;99.90;;;;;;4923312;29;20040;-91
2022/06/13 00:21:39;;;;;;;5.03;1.17;;;12.20;99.90;;;;;;4924692;29;20027;-90
2022/06/13 00:24:07;;;;;;;4.95;1.55;;;12.20;99.90;;;;;;4924044;29;20056;-89
2022/06/13 00:26:34;;;;;;;6.03;1.75;;;12.20;99.90;;;;;;4922637;29;20016;-89
2022/06/13 00:29:00;;;;;;;9.25;1.30;;;12.20;99.90;;;;;;4940907;29;20063;-90
2022/06/13 00:31:26;;;;;;;8.18;1.38;;;12.20;99.90;;;;;;4940970;29;20021;-90
2022/06/13 00:33:52;;;;;;;10.10;1.80;;;12.20;99.90;;;;;;4923996;29;20031;-88
2022/06/13 00:36:21;;;;;;;5.25;1.30;;;12.20;99.90;;;;;;4940807;29;20048;-89
2022/06/13 00:38:48;;;;;;;8.70;1.50;;;12.20;99.90;;;;;;4920822;29;20084;-89
2022/06/13 00:41:23;;;;;;;4.97;1.60;;;12.20;99.90;;;;;;4921586;29;20056;-89
2022/06/13 00:43:50;;;;;;;8.63;1.35;;;12.20;99.90;;;;;;4920381;29;20031;-91
2022/06/13 00:46:22;;;;;;;7.85;1.45;;;12.20;99.90;;;;;;4919861;29;20013;-91
2022/06/13 00:48:57;;;;;;;4.68;0.95;;;12.10;99.90;;;;;;4919718;29;20016;-90
2022/06/13 00:51:23;;;;;;;6.95;1.15;;;12.10;99.90;;;;;;4920038;29;20068;-94
2022/06/13 00:53:50;;;;;;;6.03;1.17;;;12.10;99.90;;;;;;4920249;29;20036;-94
2022/06/13 00:56:21;;;;;;;6.28;1.00;;;12.00;99.90;;;;;;4920250;29;20039;-92
2022/06/13 00:58:53;;;;;;;;;;;12.00;99.90;;;;;;4922322;29;20055;-89
2022/06/13 01:01:21;;;;;;;2.13;0.65;;;12.00;99.90;;;;;;4920891;29;19926;-90
2022/06/13 01:03:46;;;;;;;4.00;1.00;;;12.00;99.90;;;;;;4920906;29;20104;-89
2022/06/13 01:06:12;;;;;;;4.53;1.00;;;12.00;99.90;;;;;;4920347;29;20044;-91
2022/06/13 01:08:39;;;;;;;4.50;0.98;;;12.00;99.90;;;;;;4919944;29;20025;-93
2022/06/13 01:11:16;;;;;;;4.93;1.08;;;12.00;99.90;;;;;;4921576;29;20023;-89
2022/06/13 01:13:53;;;;;;;6.80;1.40;;;12.00;99.90;;;;;;4920464;29;20021;-92
2022/06/13 01:16:29;;;;;;;8.48;1.08;;;11.90;99.90;;;;;;4918237;29;20020;-91
2022/06/13 01:19:09;;;;;;;4.13;1.00;;;11.90;99.90;;;;;;4916317;29;20028;-93
2022/06/13 01:22:33;;;;;;;5.25;1.17;;;11.90;99.90;;;;;;4920843;29;20088;-92
2022/06/13 01:25:11;;;;;;;2.63;0.82;;;11.80;99.90;;;;;;4848264;29;20018;-91
2022/06/13 01:27:57;;;;;;;11.70;1.20;;;11.80;99.90;;;;;;4848730;29;20034;-88
2022/06/13 01:30:58;;;;;;;5.97;1.80;;;11.80;99.90;;;;;;4848695;29;20046;-90
2022/06/13 01:33:33;;;;;;;8.87;1.53;;;11.70;99.90;;;;;;4847048;29;20030;-91
2022/06/13 01:36:28;;;;;;;7.85;1.30;;;11.70;99.90;;;;;;4848513;29;20271;-91
2022/06/13 01:38:59;;;;;;;7.70;2.95;;;11.70;99.90;;;;;;4847893;29;20087;-88
2022/06/13 01:41:34;;;;;;;9.77;1.50;;;11.70;99.90;;;;;;4863572;29;20053;-90
2022/06/13 01:44:31;;;;;;;3.08;1.17;;;11.80;99.90;;;;;;4848501;29;20081;-90
2022/06/13 01:47:10;;;;;;;6.00;1.30;;;11.80;99.90;;;;;;4848361;29;20086;-90
2022/06/13 01:49:44;;;;;;;9.13;1.50;;;11.80;99.90;;;;;;4848035;29;20053;-90
2022/06/13 01:52:30;;;;;;;4.68;1.25;;;11.80;99.90;;;;;;4848363;29;20037;-89
2022/06/13 01:55:12;;;;;;;12.23;2.45;;;11.70;99.90;;;;;;4869708;29;20025;-89
2022/06/13 01:58:24;;;;;;;5.55;1.30;;;11.70;99.90;;;;;;4919860;29;20025;-89
2022/06/13 02:00:59;;;;;;;5.30;1.58;;;11.70;99.90;;;;;;4847046;29;20143;-89
2022/06/13 02:03:40;;;;;;;7.70;1.40;;;11.70;99.90;;;;;;4848126;29;20101;-88
2022/06/13 02:06:16;;;;;;;7.07;1.35;;;11.70;99.90;;;;;;4848044;29;20018;-87
2022/06/13 02:08:50;;;;;;;4.70;1.25;;;11.70;99.90;;;;;;4863188;29;20022;-89
2022/06/13 02:11:43;;;;;;;13.70;1.52;;;11.70;99.90;;;;;;4847923;29;20041;-90
2022/06/13 02:14:13;;;;;;;6.15;1.40;;;11.60;99.90;;;;;;4847938;29;20037;-90
2022/06/13 02:16:51;;;;;;;12.00;1.70;;;11.60;99.90;;;;;;4847943;29;20045;-90
2022/06/13 02:19:24;;;;;;;5.57;1.92;;;11.60;99.90;;;;;;4848012;29;20030;-89
2022/06/13 02:21:58;;;;;;;3.78;1.33;;;11.60;99.90;;;;;;4848155;29;20018;-89
2022/06/13 02:24:30;;;;;;;4.28;1.50;;;11.60;99.90;;;;;;4847757;29;20131;-88
2022/06/13 02:26:59;;;;;;;6.60;1.40;;;11.60;99.90;;;;;;4847270;29;20030;-88
2022/06/13 02:29:42;;;;;;;7.53;1.70;;;11.70;99.90;;;;;;4848644;29;20077;-89
2022/06/13 02:32:43;;;;;;;3.75;1.08;;;11.70;99.90;;;;;;4847864;29;20042;-90
2022/06/13 02:35:17;;;;;;;5.90;1.33;;;11.70;99.90;;;;;;4851536;29;20059;-89
2022/06/13 02:37:48;;;;;;;7.07;1.40;;;11.70;99.90;;;;;;4918396;29;20021;-89
2022/06/13 02:40:22;;;;;;;5.28;1.40;;;11.60;99.90;;;;;;4922315;29;20111;-89
2022/06/13 02:42:58;;;;;;;2.83;1.45;;;11.60;99.90;;;;;;4922683;29;20027;-91
2022/06/13 02:45:40;;;;;;;8.63;1.92;;;11.60;99.90;;;;;;4938964;29;20029;-89
2022/06/13 02:48:27;;;;;;;5.07;1.27;;;11.60;99.90;;;;;;4921682;29;20044;-89
2022/06/13 02:51:29;;;;;;;5.50;1.75;;;11.50;99.90;;;;;;4924357;29;20005;-90
2022/06/13 02:54:20;;;;;;;4.72;1.30;;;11.50;99.90;;;;;;4895932;29;20045;-89
2022/06/13 02:59:57;;;;;;;5.32;1.88;;;11.40;99.90;;;;;;4892963;29;20047;-91
2022/06/13 03:02:49;;;;;;;4.60;1.30;;;11.40;99.90;;;;;;4879757;29;20041;-89
2022/06/13 03:05:39;;;;;;;3.40;1.83;;;11.40;99.90;;;;;;4852567;29;20026;-90
2022/06/13 03:08:28;;;;;;;8.20;1.95;;;11.30;99.90;;;;;;4895444;29;20032;-90
2022/06/13 03:11:17;;;;;;;3.85;1.50;;;11.30;99.90;;;;;;4883708;29;20068;-91
2022/06/13 03:14:02;;;;;;;4.88;1.65;;;11.30;99.90;;;;;;4895529;29;20021;-89
2022/06/13 03:16:36;;;;;;;12.80;2.70;;;11.30;99.90;;;;;;4893767;29;20017;-89
2022/06/13 03:19:31;;;;;;;6.88;1.55;;;11.30;99.90;;;;;;4893282;29;20048;-92
2022/06/13 03:22:29;;;;;;;5.45;1.50;;;11.20;99.90;;;;;;4893617;29;20021;-91
2022/06/13 03:25:03;;;;;;;8.60;1.67;;;11.20;99.90;;;;;;4892718;29;20081;-88
2022/06/13 03:27:45;;;;;;;7.95;2.10;;;11.20;99.90;;;;;;4887074;29;20021;-90
2022/06/13 03:30:14;;;;;;;8.07;3.08;;;11.20;99.90;;;;;;4902261;29;20029;-90
2022/06/13 03:35:41;;;;;;;9.05;2.30;;;11.20;99.90;;;;;;4932365;29;20031;-89
2022/06/13 03:38:10;;;;;;;6.28;1.90;;;11.10;99.90;;;;;;4906316;29;20044;-89
2022/06/13 03:40:40;;;;;;;7.13;1.70;;;11.20;99.90;;;;;;4922933;29;20044;-89
2022/06/13 03:43:16;;;;;;;4.60;1.45;;;11.20;99.90;;;;;;4906240;29;20021;-89
2022/06/13 03:45:48;;;;;;;6.65;1.60;;;11.20;99.90;;;;;;4905407;29;20115;-88
2022/06/13 03:48:13;;;;;;;10.98;1.92;;;11.20;99.90;;;;;;4906154;29;20032;-88
2022/06/13 03:50:43;;;;;;;6.20;1.80;;;11.20;99.90;;;;;;4923072;29;20031;-89
2022/06/13 03:53:39;;;;;;;6.10;2.08;;;11.20;99.90;;;;;;4922566;29;20012;-89
2022/06/13 03:56:40;;;;;;;10.43;2.30;;;11.20;99.90;;;;;;4922716;29;20036;-88
2022/06/13 03:59:25;;;;;;;4.60;1.50;;;11.20;99.90;;;;;;4868207;29;20113;-89
2022/06/13 04:01:59;;;;;;;6.90;1.70;;;11.30;99.90;;;;;;4883322;29;20033;-90
2022/06/13 04:04:32;;;;;;;6.88;1.80;;;11.30;99.90;;;;;;4867850;29;20025;-89
2022/06/13 04:07:00;;;;;;;3.60;1.40;;;11.30;99.90;;;;;;4866303;29;20558;-90
2022/06/13 04:09:30;;;;;;;6.03;1.30;;;11.30;99.90;;;;;;4864521;29;20025;-89
2022/06/13 04:12:19;;;;;;;6.60;1.35;;;11.30;99.90;;;;;;4865767;29;20053;-91
2022/06/13 04:15:03;;;;;;;4.95;1.50;;;11.30;99.90;;;;;;4880803;29;20041;-91
2022/06/13 04:17:33;;;;;;;5.70;1.40;;;11.30;99.90;;;;;;4867180;29;20103;-89
2022/06/13 04:20:15;;;;;;;5.85;1.60;;;11.40;99.90;;;;;;4881051;29;20032;-92
2022/06/13 04:22:53;;;;;;;10.95;1.70;;;11.40;99.90;;;;;;4882515;29;20060;-93
2022/06/13 04:25:33;;;;;;;7.47;1.77;;;11.40;99.90;;;;;;4882732;29;20060;-88
2022/06/13 04:28:32;;;;;;;3.05;1.50;;;11.40;99.90;;;;;;4883291;29;20033;-89
2022/06/13 04:31:00;;;;;;;4.35;1.58;;;11.40;99.90;;;;;;4876813;29;20036;-89
2022/06/13 04:33:31;;;;;;;5.07;1.80;;;11.50;99.90;;;;;;4869258;29;20021;-89
2022/06/13 04:35:58;;;;;;;7.93;1.65;;;11.50;99.90;;;;;;4921908;29;20020;-90
2022/06/13 04:38:25;;;;;;;7.70;1.60;;;11.50;99.90;;;;;;4921439;29;20069;-89
2022/06/13 04:40:56;;;;;;;6.88;1.38;;;11.50;99.90;;;;;;4921904;29;20043;-89
2022/06/13 04:43:27;;;;;;;5.75;1.40;;;11.50;99.90;;;;;;4905751;29;20017;-89
2022/06/13 04:46:08;;;;;;;6.30;2.47;;;11.60;99.90;;;;;;4905248;29;20020;-91
2022/06/13 04:48:37;;;;;;;4.57;1.60;;;11.60;99.90;;;;;;4904971;29;20029;-89
2022/06/13 04:51:09;;;;;;;8.98;1.38;;;11.60;99.90;;;;;;4905297;29;20088;-90
2022/06/13 04:53:38;;;;;;;7.40;1.40;;;11.70;99.90;;;;;;4905412;29;20131;-91
2022/06/13 04:56:04;;;;;;;5.93;1.50;;;11.70;99.90;;;;;;4921810;29;20053;-92
2022/06/13 04:58:38;;;;;;;6.45;2.17;;;11.70;99.90;;;;;;4905109;29;20020;-89
2022/06/13 05:01:15;;;;;;;6.38;1.10;;;11.70;99.90;;;;;;4905467;29;20064;-92
2022/06/13 05:03:43;;;;;;;7.45;1.38;;;11.70;99.90;;;;;;4921456;29;20027;-91
2022/06/13 05:06:33;;;;;;;4.93;1.10;;;11.70;99.90;;;;;;4904540;29;20029;-92
2022/06/13 05:09:06;;;;;;;7.13;1.52;;;11.70;99.90;;;;;;4904660;29;20023;-88
2022/06/13 05:11:56;;;;;;;5.35;1.30;;;11.70;99.90;;;;;;4904746;29;20016;-91
2022/06/13 05:14:31;;;;;;;7.93;2.53;;;11.60;99.90;;;;;;4904130;29;20064;-88
2022/06/13 05:17:29;;;;;;;3.72;0.80;;;11.60;99.90;;;;;;4919837;29;20161;-93
2022/06/13 05:20:39;;;;;;;3.50;1.05;;;11.60;99.90;;;;;;4901671;29;20044;-91
2022/06/13 05:23:31;;;;;;;5.75;1.20;;;11.60;99.90;;;;;;4920516;29;20084;-90
2022/06/13 05:25:59;;;;;;;6.00;1.10;;;11.60;99.90;;;;;;4901444;29;20044;-93
2022/06/13 05:28:29;;;;;;;6.45;1.20;;;11.50;99.90;;;;;;4918373;29;20015;-91
2022/06/13 05:30:57;;;;;;;8.40;1.50;;;11.50;99.90;;;;;;4904048;29;20016;-89
2022/06/13 05:33:41;;;;;;;3.63;1.35;;;11.50;99.90;;;;;;4904029;29;20024;-91
2022/06/13 05:36:10;;;;;;;9.70;1.50;;;11.60;99.90;;;;;;4903850;29;20044;-92
2022/06/13 05:38:43;;;;;;;7.72;1.17;;;11.60;99.90;;;;;;4920298;29;20044;-88
2022/06/13 05:41:09;;;;;;;4.47;1.27;;;11.60;99.90;;;;;;4901374;29;20040;-92
2022/06/13 05:43:35;;;;;;;4.20;1.00;;;11.60;99.90;;;;;;4920394;29;20056;-90
2022/06/13 05:46:03;;;;;;;4.00;1.20;;;11.70;99.90;;;;;;4904206;29;20088;-92
2022/06/13 05:48:29;;;;;;;4.45;1.63;;;11.70;99.90;;;;;;4904072;29;20134;-92
2022/06/13 05:50:55;;;;;;;5.07;1.10;;;11.70;99.90;;;;;;4904458;29;20021;-89
2022/06/13 05:53:23;;;;;;;6.65;1.30;;;11.70;99.90;;;;;;4903710;29;20052;-88
2022/06/13 05:55:51;;;;;;;6.65;1.33;;;11.80;99.90;;;;;;4919953;29;20035;-90
2022/06/13 05:58:18;;;;;;;5.88;0.90;;;11.80;99.90;;;;;;4920425;29;20115;-91
2022/06/13 06:00:50;;;;;;;3.20;1.13;;;11.80;99.90;;;;;;4903465;29;20031;-90
2022/06/13 06:03:16;;;;;;;3.45;1.20;;;11.80;99.90;;;;;;4904348;29;20027;-89
2022/06/13 06:05:43;;;;;;;6.18;1.35;;;11.80;99.90;;;;;;4904465;29;20042;-90
2022/06/13 06:08:21;;;;;;;7.13;2.20;;;11.90;99.90;;;;;;4904441;29;20036;-89
2022/06/13 06:10:49;;;;;;;6.78;1.80;;;11.90;99.90;;;;;;4919494;29;20044;-92
2022/06/13 06:13:15;;;;;;;7.38;1.30;;;12.00;99.90;;;;;;4924084;29;20051;-95
2022/06/13 06:15:43;;;;;;;6.18;1.17;;;12.00;99.90;;;;;;4912807;29;20035;-93
2022/06/13 06:18:09;;;;;;;5.55;1.33;;;12.10;99.90;;;;;;4922982;29;20032;-90
2022/06/13 06:20:36;;;;;;;6.35;1.40;;;12.10;99.90;;;;;;4913010;29;20110;-90
2022/06/13 06:23:04;;;;;;;4.65;1.17;;;12.20;99.90;;;;;;4911828;29;20017;-94
2022/06/13 06:25:31;;;;;;;5.25;1.98;;;12.20;99.90;;;;;;4907177;29;20032;-94
2022/06/13 06:27:56;;;;;;;8.00;1.67;;;12.30;99.90;;;;;;4910766;29;20029;-96
2022/06/13 06:30:23;;;;;;;9.65;1.48;;;12.30;99.90;;;;;;4912749;29;20109;-94
2022/06/13 06:32:48;;;;;;;4.57;1.30;;;12.40;99.90;;;;;;4913177;29;20036;-91
2022/06/13 06:35:14;;;;;;;7.63;1.73;;;12.40;99.90;;;;;;4918567;29;20021;-93
2022/06/13 06:37:45;;;;;;;9.88;1.50;;;12.50;99.90;;;;;;4918743;29;20031;-94
2022/06/13 06:40:14;;;;;;;11.02;1.83;;;12.50;99.90;;;;;;4913635;29;20064;-91
2022/06/13 06:42:40;;;;;;;4.13;1.25;;;12.60;99.90;;;;;;4917223;29;20031;-94
2022/06/13 06:45:07;;;;;;;6.35;1.27;;;12.70;99.90;;;;;;4920245;29;20027;-92
2022/06/13 06:47:32;;;;;;;8.88;1.35;;;12.70;99.90;;;;;;4915252;29;20020;-89
2022/06/13 06:49:58;;;;;;;7.28;1.25;;;12.70;99.90;;;;;;4926301;29;20020;-88
2022/06/13 06:52:25;;;;;;;8.73;1.77;;;12.80;99.90;;;;;;4927115;29;20031;-89
2022/06/13 07:00:20;;;;;;;10.05;1.33;;;12.90;99.90;;;;;;4943336;29;20035;-90
2022/06/13 07:02:46;;;;;;;8.52;1.30;;;12.90;99.90;;;;;;4942606;29;20022;-90
2022/06/13 07:05:13;;;;;;;10.65;1.75;;;13.00;99.90;;;;;;4926988;29;20035;-91
2022/06/13 07:07:39;;;;;;;7.30;1.40;;;13.00;99.90;;;;;;4925751;29;20020;-90
2022/06/13 07:10:07;;;;;;;4.72;1.30;;;13.00;99.90;;;;;;4925244;29;20028;-91
2022/06/13 07:12:33;;;;;;;6.30;1.58;;;13.00;99.90;;;;;;4926570;29;20020;-88
2022/06/13 07:14:58;;;;;;;4.82;1.52;;;13.00;99.90;;;;;;4925928;29;20019;-90
2022/06/13 07:17:26;;;;;;;5.75;1.40;;;13.10;99.90;;;;;;4923527;29;20039;-90
2022/06/13 07:19:51;;;;;;;5.18;1.30;;;13.00;99.90;;;;;;4913899;29;20044;-89
2022/06/13 07:22:20;;;;;;;7.35;1.20;;;13.00;99.90;;;;;;4921954;29;20020;-89
2022/06/13 07:24:47;;;;;;;8.35;1.52;;;13.00;99.90;;;;;;4924972;29;20048;-89
2022/06/13 07:27:13;;;;;;;7.00;2.28;;;13.00;99.90;;;;;;4942590;29;20008;-91
2022/06/13 07:29:40;;;;;;;4.70;1.40;;;13.00;99.90;;;;;;4924398;29;20035;-90
2022/06/13 07:32:22;;;;;;;6.43;1.88;;;13.00;99.90;;;;;;4926461;29;20024;-89
2022/06/13 07:34:51;;;;;;;8.00;1.75;;;13.00;99.90;;;;;;4940599;29;20096;-93
2022/06/13 07:40:07;;;;;;;8.30;1.88;;;13.00;99.90;;;;;;4941148;29;20055;-87
2022/06/13 07:42:46;;;;;;;6.80;1.70;;;13.10;99.90;;;;;;4924804;29;20050;-92
2022/06/13 07:45:17;;;;;;;12.13;2.50;;;13.10;99.90;;;;;;4924826;29;20104;-88
2022/06/13 07:47:45;;;;;;;8.18;1.88;;;13.20;99.90;;;;;;4925664;29;20028;-89
2022/06/13 07:50:13;;;;;;;6.30;2.50;;;13.20;99.90;;;;;;4925992;29;20050;-88
2022/06/13 07:52:40;;;;;;;6.28;2.40;;;13.20;99.90;;;;;;4924827;29;20043;-88
2022/06/13 07:55:06;;;;;;;4.82;2.08;;;13.30;99.90;;;;;;4917978;29;20091;-90
2022/06/13 07:57:32;;;;;;;6.97;1.98;;;13.30;99.90;;;;;;4915175;29;20036;-92
2022/06/13 07:59:58;;;;;;;6.65;1.58;;;13.40;99.90;;;;;;4934823;29;20044;-88
2022/06/13 08:02:29;;;;;;;7.18;1.75;;;13.50;99.90;;;;;;4932582;29;20028;-90
2022/06/13 08:04:54;;;;;;;8.77;1.85;;;13.60;99.90;;;;;;4934214;29;20028;-90
2022/06/13 08:07:22;;;;;;;8.23;1.70;;;13.80;99.90;;;;;;4920525;29;20025;-95
2022/06/13 08:09:48;;;;;;;7.65;1.58;;;13.90;99.90;;;;;;4934995;29;20020;-91
2022/06/13 08:12:17;;;;;;;5.72;1.30;;;14.00;99.90;;;;;;4932061;29;20028;-91
2022/06/13 08:14:47;;;;;;;5.43;1.52;;;14.00;99.90;;;;;;4928319;29;20142;-90
2022/06/13 08:17:19;;;;;;;9.45;1.67;;;14.10;99.90;;;;;;4930670;28;20052;-93
2022/06/13 08:19:45;;;;;;;4.65;1.55;;;14.20;99.90;;;;;;4915545;29;20055;-93
2022/06/13 08:22:11;;;;;;;10.68;1.60;;;14.30;99.90;;;;;;4915897;29;20028;-93
2022/06/13 08:24:37;;;;;;;5.72;1.58;;;14.30;99.90;;;;;;4914716;29;20021;-94
2022/06/13 08:27:03;;;;;;;9.70;1.52;;;14.40;99.90;;;;;;4911736;29;20036;-91
2022/06/13 08:29:29;;;;;;;5.07;1.30;;;14.50;99.90;;;;;;4912155;29;20033;-92
2022/06/13 08:31:57;;;;;;;5.43;1.20;;;14.60;99.90;;;;;;4913070;29;20031;-95
2022/06/13 08:34:23;;;;;;;4.93;1.42;;;14.70;99.90;;;;;;4913027;29;20070;-93
2022/06/13 08:36:49;;;;;;;4.65;1.08;;;14.70;99.90;;;;;;4928334;29;20143;-95
2022/06/13 08:39:15;;;;;;;6.05;1.40;;;14.70;99.90;;;;;;4922806;29;20040;-93
2022/06/13 08:41:44;;;;;;;9.20;1.30;;;14.70;99.90;;;;;;4926318;29;20016;-93
2022/06/13 08:44:18;;;;;;;6.10;1.58;;;14.70;99.90;;;;;;4926369;29;20020;-95
2022/06/13 08:46:55;;;;;;;5.85;1.58;;;14.60;99.90;;;;;;4928728;29;20136;-93
2022/06/13 08:49:27;;;;;;;8.75;2.13;;;14.60;99.90;;;;;;4929950;29;20031;-94
2022/06/13 08:52:25;;;;;;;10.75;1.73;;;14.70;99.90;;;;;;4911756;29;20073;-95
2022/06/13 08:55:12;;;;;;;6.93;1.38;;;14.80;99.90;;;;;;4909860;29;20029;-94
2022/06/13 08:57:45;;;;;;;5.68;1.50;;;14.90;99.70;;;;;;4927568;29;20027;-94
2022/06/13 09:00:18;;;;;;;5.18;1.10;;;15.00;99.40;;;;;;4907950;29;20040;-95
2022/06/13 09:03:01;;;;;;;9.38;1.58;;;15.00;98.60;;;;;;4911327;29;20024;-95
2022/06/13 09:05:48;;;;;;;3.22;1.42;;;15.10;98.20;;;;;;4911077;29;20028;-92
2022/06/13 09:08:37;;;;;;;7.20;1.13;;;15.10;97.30;;;;;;4931292;29;20016;-94
2022/06/13 09:11:29;;;;;;;4.97;1.15;;;15.30;96.80;;;;;;4900995;29;20040;-95
2022/06/13 09:14:23;;;;;;;3.90;1.85;;;15.40;96.20;;;;;;4898154;29;20012;-95
2022/06/13 09:17:17;;;;;;;3.20;1.25;;;15.50;95.20;;;;;;4901404;29;20044;-94
2022/06/13 09:19:55;;;;;;;2.97;1.02;;;15.60;94.70;;;;;;4901492;29;20036;-94
2022/06/13 09:22:45;;;;;;;2.85;1.20;;;15.50;93.70;;;;;;4904574;29;20012;-91
2022/06/13 09:25:46;;;;;;;4.53;1.52;;;15.50;93.40;;;;;;4920322;29;20035;-95
2022/06/13 09:28:26;;;;;;;4.10;1.17;;;15.50;92.90;;;;;;4918707;29;20567;-93
2022/06/13 09:31:00;;;;;;;4.93;1.20;;;15.50;92.70;;;;;;4920612;29;20101;-96
2022/06/13 09:33:37;;;;;;;5.72;1.00;;;15.50;92.70;;;;;;4902679;29;20459;-94
2022/06/13 09:36:19;;;;;;;3.40;1.10;;;15.50;92.40;;;;;;4908300;29;20033;-96
2022/06/13 09:38:53;;;;;;;4.65;1.30;;;15.50;92.00;;;;;;4905376;29;20060;-93
2022/06/13 09:41:42;;;;;;;6.00;1.30;;;15.50;91.60;;;;;;4913338;29;20030;-92
2022/06/13 09:44:33;;;;;;;4.38;1.35;;;15.50;91.60;;;;;;4928059;29;20028;-92
2022/06/13 09:47:14;;;;;;;7.50;1.70;;;15.60;91.60;;;;;;4910173;29;20131;-91
2022/06/13 09:49:54;;;;;;;5.28;1.40;;;15.70;91.60;;;;;;4916795;29;20076;-93
2022/06/13 09:52:39;;;;;;;11.23;2.08;;;15.80;91.50;;;;;;4906517;29;20056;-94
2022/06/13 09:55:41;;;;;;;4.38;1.30;;;15.90;91.50;;;;;;4913717;29;20043;-94
2022/06/13 09:58:46;;;;;;;4.57;1.40;;;15.90;91.20;;;;;;4897028;29;20035;-94
2022/06/13 10:01:27;;;;;;;8.32;1.23;;;15.90;90.80;;;;;;4910575;29;20036;-94
2022/06/13 10:04:37;;;;;;;8.23;1.95;;;15.90;90.80;;;;;;4911450;29;20048;-93
2022/06/13 10:07:16;;;;;;;6.65;1.38;;;16.00;90.80;;;;;;4904094;29;20035;-92
2022/06/13 10:10:02;;;;;;;5.97;1.88;;;16.10;90.80;;;;;;4920722;29;20032;-93
2022/06/13 10:12:43;;;;;;;4.13;1.30;;;16.20;90.50;;;;;;4929544;29;20056;-92
2022/06/13 10:15:34;;;;;;;2.55;1.33;;;16.20;89.60;;;;;;4918842;29;20055;-94
2022/06/13 10:18:28;;;;;;;3.05;0.93;;;16.30;89.10;;;;;;4918707;29;20039;-93
2022/06/13 10:21:25;;;;;;;4.40;1.20;;;16.40;87.90;;;;;;4899863;29;20055;-94
2022/06/13 10:24:20;;;;;;;7.25;1.70;;;16.40;86.80;;;;;;4898078;29;20048;-94
2022/06/13 10:27:03;;;;;;;5.65;1.60;;;16.20;86.30;;;;;;4911042;29;20039;-94
2022/06/13 10:29:47;;;;;;;9.50;2.00;;;16.30;86.20;;;;;;4882307;29;20036;-90
2022/06/13 10:32:29;;;;;;;9.05;2.55;;;16.40;86.90;;;;;;4892111;29;20051;-94
2022/06/13 10:35:04;;;;;;;7.95;2.42;;;16.70;85.60;;;;;;4893992;29;20065;-96
2022/06/13 10:37:54;;;;;;;6.05;1.70;;;16.90;84.40;;;;;;4903645;29;20048;-94
2022/06/13 10:40:21;;;;;;;5.40;1.70;;;17.00;83.70;;;;;;4892266;29;20411;-94
2022/06/13 10:42:47;;;;;;;5.95;2.40;;;17.00;83.30;;;;;;4897919;29;20027;-93
2022/06/13 10:45:16;;;;;;;4.18;2.03;;;17.10;82.70;;;;;;4892287;29;20029;-93
2022/06/13 10:48:11;;;;;;;5.20;2.20;;;17.00;81.10;;;;;;4900862;29;20025;-94
2022/06/13 10:50:42;;;;;;;8.50;3.50;;;17.00;81.70;;;;;;4906334;29;20017;-95
2022/06/13 10:53:15;;;;;;;7.65;3.33;;;17.10;81.70;;;;;;4891443;29;20029;-94
2022/06/13 10:55:44;;;;;;;6.13;2.63;;;17.10;81.20;;;;;;4904868;29;20331;-93
2022/06/13 10:58:15;;;;;;;7.22;2.10;;;17.20;80.70;;;;;;4894049;29;20084;-94
2022/06/13 11:01:13;;;;;;;7.43;2.83;;;17.20;80.60;;;;;;4894630;29;20045;-95
2022/06/13 11:04:02;;;;;;;5.32;1.70;;;17.20;80.20;;;;;;4899742;29;20021;-91
2022/06/13 11:06:45;;;;;;;6.07;1.90;;;17.30;79.90;;;;;;4911353;29;20044;-93
2022/06/13 11:09:37;;;;;;;4.65;1.70;;;17.40;79.70;;;;;;4917812;29;20016;-92
2022/06/13 11:12:16;;;;;;;7.82;1.70;;;17.50;79.50;;;;;;4903754;29;20037;-94
2022/06/13 11:23:28;;;;;;;5.50;1.40;;;18.20;77.80;;;;;;4915909;29;20065;-90
2022/06/13 11:25:57;;;;;;;11.07;1.75;;;18.10;77.50;;;;;;4925288;29;20016;-91
2022/06/13 11:28:27;;;;;;;6.78;1.25;;;18.00;77.10;;;;;;4926770;29;20029;-91
2022/06/13 11:31:14;;;;;;;4.37;1.27;;;18.00;77.30;;;;;;4926534;29;20025;-92
2022/06/13 11:33:40;;;;;;;5.63;1.25;;;18.00;77.50;;;;;;4928551;29;20280;-93
2022/06/13 11:36:15;;;;;;;3.03;1.35;;;18.00;77.70;;;;;;4924003;29;20032;-89
2022/06/13 11:38:59;;;;;;;8.70;1.83;;;17.90;77.40;;;;;;4928202;29;20028;-92
2022/06/13 11:41:34;;;;;;;5.00;1.80;;;17.80;77.60;;;;;;4927472;29;20023;-92
2022/06/13 11:44:10;;;;;;;2.35;1.58;;;17.80;76.50;;;;;;4929991;29;20078;-91
2022/06/13 11:47:04;;;;;;;4.45;1.55;;;17.60;75.90;;;;;;4928115;29;20044;-90
2022/06/13 11:49:35;;;;;;;5.47;1.60;;;17.50;76.20;;;;;;4930016;29;20111;-89
2022/06/13 11:52:10;;;;;;;;;;;17.40;76.50;;;;;;4928446;29;20041;-91
2022/06/13 11:54:39;;;;;;;5.40;1.50;;;17.30;76.70;;;;;;4926627;29;19911;-93
2022/06/13 11:57:13;;;;;;;3.22;1.40;;;17.20;77.30;;;;;;4928315;29;20059;-95
2022/06/13 12:00:07;;;;;;;6.57;1.45;;;17.10;78.00;;;;;;4927491;29;20044;-91
2022/06/13 12:02:39;;;;;;;5.50;1.50;;;17.10;78.50;;;;;;4929747;29;20036;-92
2022/06/13 12:05:13;;;;;;;5.40;1.67;;;17.00;78.90;;;;;;4927908;29;20048;-94
2022/06/13 12:07:49;;;;;;;5.05;1.33;;;16.90;79.40;;;;;;4927475;29;20068;-94
2022/06/13 12:10:20;;;;;;;9.32;1.67;;;16.90;79.60;;;;;;4925101;29;20032;-94
2022/06/13 12:12:46;;;;;;;5.15;1.70;;;16.80;79.60;;;;;;4925053;29;20020;-91
2022/06/13 12:15:14;;;;;;;7.50;1.35;;;16.80;79.70;;;;;;4926981;29;20028;-94
2022/06/13 12:18:06;;;;;;;6.97;1.75;;;16.80;80.10;;;;;;4926428;29;20028;-93
2022/06/13 12:20:44;;;;;;;4.57;1.40;;;16.80;80.40;;;;;;4927980;29;20064;-95
2022/06/13 12:23:15;;;;;;;6.50;1.77;;;16.90;80.40;;;;;;4912842;29;20063;-92
2022/06/13 12:25:49;;;;;;;3.17;1.50;;;17.00;80.50;;;;;;4918403;29;20037;-93
2022/06/13 12:28:21;;;;;;;5.25;1.40;;;17.00;79.90;;;;;;4903248;29;20020;-95
2022/06/13 12:30:57;;;;;;;5.80;1.50;;;17.10;79.60;;;;;;4897081;29;20032;-95
2022/06/13 12:33:44;;;;;;;4.07;1.30;;;17.20;79.40;;;;;;4915721;29;20039;-94
2022/06/13 12:36:44;;;;;;;5.03;1.80;;;17.20;79.40;;;;;;4918008;29;20530;-94
2022/06/13 12:39:25;;;;;;;6.63;1.47;;;17.10;79.00;;;;;;4920044;29;20040;-94
2022/06/13 12:42:07;;;;;;;8.90;2.45;;;17.00;79.90;;;;;;4914480;29;20387;-93
2022/06/13 12:44:43;;;;;;;4.32;1.50;;;17.00;79.40;;;;;;4911370;29;20079;-96
2022/06/13 12:47:34;;;;;;;5.20;1.70;;;17.00;79.40;;;;;;4910524;29;20043;-94
2022/06/13 12:50:43;;;;;;;7.40;1.58;;;16.90;79.40;;;;;;4912063;29;20075;-93
2022/06/13 12:53:37;;;;;;;5.97;1.73;;;17.00;79.80;;;;;;4888449;29;20040;-95
2022/06/13 12:56:22;;;;;;;7.35;1.80;;;17.00;79.80;;;;;;4909492;29;20039;-96
2022/06/13 12:59:08;;;;;;;4.63;2.03;;;17.00;79.90;;;;;;4911007;29;20048;-96
2022/06/13 13:01:58;;;;;;;11.98;1.98;;;17.10;80.00;;;;;;4913879;29;20036;-96
2022/06/13 13:04:36;;;;;;;4.38;1.75;;;17.20;79.80;;;;;;4915825;29;20096;-95
2022/06/13 13:07:17;;;;;;;6.43;1.70;;;17.40;79.00;;;;;;4923784;29;20024;-93
2022/06/13 13:09:52;;;;;;;;;;;17.50;78.60;;;;;;4912363;29;20040;-96
2022/06/13 13:12:38;;;;;;;6.82;1.50;;;17.70;78.10;;;;;;4909750;29;19907;-95
2022/06/13 13:15:24;;;;;;;7.18;1.77;;;17.80;77.60;;;;;;4912961;29;20123;-95
2022/06/13 13:18:12;;;;;;;7.13;1.67;;;17.90;77.40;;;;;;4911851;29;20131;-96
2022/06/13 13:20:50;;;;;;;6.00;1.60;;;17.90;76.20;;;;;;4912852;29;20044;-96
2022/06/13 13:23:26;;;;;;;8.90;2.08;;;17.80;76.20;;;;;;4917717;29;20079;-96
2022/06/13 13:26:14;;;;;;;4.15;1.25;;;17.70;76.30;;;;;;4912135;29;20080;-94
2022/06/13 13:28:46;;;;;;;10.43;1.77;;;17.70;76.70;;;;;;4908691;29;20028;-94
2022/06/13 13:31:20;;;;;;;6.93;1.75;;;17.60;76.70;;;;;;4906173;29;20025;-95
2022/06/13 13:34:07;;;;;;;5.10;1.38;;;17.50;76.70;;;;;;4906569;29;20107;-95
2022/06/13 13:36:56;;;;;;;4.40;1.38;;;17.40;76.70;;;;;;4909265;29;20055;-93
2022/06/13 13:39:42;;;;;;;5.47;1.38;;;17.40;77.00;;;;;;4908862;29;20111;-95
2022/06/13 13:42:18;;;;;;;2.88;1.30;;;17.40;77.10;;;;;;4909165;29;20024;-96
2022/06/13 13:44:57;;;;;;;6.60;1.38;;;17.50;77.30;;;;;;4910827;29;20021;-93
2022/06/13 13:47:24;;;;;;;5.07;1.55;;;17.70;77.20;;;;;;4907801;29;20035;-94
2022/06/13 13:49:56;;;;;;;6.80;1.50;;;17.80;76.80;;;;;;4923923;29;20040;-95
2022/06/13 13:52:35;;;;;;;5.60;1.70;;;17.90;76.00;;;;;;4912587;29;20012;-93
2022/06/13 13:55:16;;;;;;;4.00;1.35;;;18.00;75.80;;;;;;4914863;29;20100;-94
2022/06/13 13:57:55;;;;;;;6.68;1.83;;;18.10;75.50;;;;;;4891715;29;20024;-95
2022/06/13 14:00:27;;;;;;;1.95;0.80;;;18.10;75.20;;;;;;4907281;29;20406;-94